createdAt,value
2018-02-20T00:02:24.930Z,0.10
2018-02-20T00:04:51.386Z,0.10
2018-02-20T00:07:18.612Z,-0.10
2018-02-20T00:09:45.040Z,-0.10
2018-02-20T00:12:11.457Z,-0.20
2018-02-20T00:14:37.939Z,-0.20
2018-02-20T00:17:04.890Z,-0.30
2018-02-20T00:19:31.348Z,-0.40
2018-02-20T00:21:58.536Z,-0.60
2018-02-20T00:24:25.730Z,-0.70
2018-02-20T00:26:52.155Z,-0.80
2018-02-20T00:29:18.583Z,-0.80
2018-02-20T00:31:45.759Z,-1.10
2018-02-20T00:34:12.928Z,-1.20
2018-02-20T00:36:39.380Z,-1.20
2018-02-20T00:39:06.139Z,-1.30
2018-02-20T00:41:32.586Z,-1.40
2018-02-20T00:43:59.711Z,-1.70
2018-02-20T00:46:26.897Z,-1.70
2018-02-20T00:48:53.501Z,-1.80
2018-02-20T00:51:19.920Z,-1.80
2018-02-20T00:53:46.342Z,-1.90
2018-02-20T00:56:13.099Z,-2.20
2018-02-20T00:58:39.535Z,-1.90
2018-02-20T01:01:06.004Z,-2.00
2018-02-20T01:03:32.648Z,-2.00
2018-02-20T01:06:05.977Z,-1.80
2018-02-20T01:08:32.407Z,-2.10
2018-02-20T01:10:58.851Z,-2.10
2018-02-20T01:13:25.347Z,-2.30
2018-02-20T01:15:51.846Z,-2.30
2018-02-20T01:18:18.320Z,-2.40
2018-02-20T01:20:44.783Z,-3.70
2018-02-20T01:23:11.256Z,-2.50
2018-02-20T01:25:38.036Z,-2.60
2018-02-20T01:28:05.194Z,-2.60
2018-02-20T01:30:32.408Z,-2.70
2018-02-20T01:32:58.879Z,-2.70
2018-02-20T01:35:25.337Z,-2.70
2018-02-20T01:37:51.808Z,-1.80
2018-02-20T01:40:18.388Z,-2.60
2018-02-20T01:42:44.909Z,-2.80
2018-02-20T01:45:11.426Z,-2.90
2018-02-20T01:47:37.915Z,-2.90
2018-02-20T01:50:05.742Z,-2.90
2018-02-20T01:52:32.231Z,-3.00
2018-02-20T01:54:58.655Z,-2.40
2018-02-20T01:57:25.834Z,-3.00
2018-02-20T01:59:52.364Z,-3.10
2018-02-20T02:02:19.552Z,-3.10
2018-02-20T02:04:46.063Z,-3.20
2018-02-20T02:07:13.607Z,-3.10
2018-02-20T02:09:40.072Z,-3.10
2018-02-20T02:12:07.439Z,-3.20
2018-02-20T02:14:34.693Z,-3.30
2018-02-20T02:17:01.128Z,-3.30
2018-02-20T02:19:27.716Z,-3.30
2018-02-20T02:21:54.239Z,-3.30
2018-02-20T02:24:20.663Z,-3.30
2018-02-20T02:26:47.121Z,-3.30
2018-02-20T02:29:13.538Z,-3.30
2018-02-20T02:31:40.066Z,-3.40
2018-02-20T02:34:06.595Z,-3.40
2018-02-20T02:36:33.785Z,-3.50
2018-02-20T02:39:00.280Z,-3.50
2018-02-20T02:41:26.768Z,-3.50
2018-02-20T02:43:53.907Z,-3.60
2018-02-20T02:46:21.071Z,-3.60
2018-02-20T02:48:48.238Z,-3.60
2018-02-20T02:51:14.667Z,-3.60
2018-02-20T02:53:42.037Z,-3.70
2018-02-20T02:56:08.569Z,-3.70
2018-02-20T02:58:35.011Z,-3.60
2018-02-20T03:01:01.445Z,-3.70
2018-02-20T03:03:28.658Z,-3.60
2018-02-20T03:05:55.136Z,-3.70
2018-02-20T03:08:21.595Z,-3.60
2018-02-20T03:10:48.840Z,-3.70
2018-02-20T03:13:15.245Z,-3.70
2018-02-20T03:15:41.744Z,-3.70
2018-02-20T03:18:08.412Z,-3.60
2018-02-20T03:20:35.581Z,-3.70
2018-02-20T03:23:03.102Z,-3.70
2018-02-20T03:25:29.645Z,-3.80
2018-02-20T03:27:56.100Z,-3.80
2018-02-20T03:30:24.061Z,-3.90
2018-02-20T03:32:50.512Z,-3.90
2018-02-20T03:35:16.983Z,-3.80
2018-02-20T03:37:43.416Z,-3.80
2018-02-20T03:40:09.851Z,-3.80
2018-02-20T03:42:36.332Z,-3.80
2018-02-20T03:45:04.058Z,-3.70
2018-02-20T03:47:30.511Z,-3.80
2018-02-20T03:49:56.915Z,-3.70
2018-02-20T03:52:24.091Z,-3.60
2018-02-20T03:54:50.675Z,-3.30
2018-02-20T03:57:17.112Z,-3.60
2018-02-20T03:59:43.531Z,-3.70
2018-02-20T04:02:10.011Z,-3.60
2018-02-20T04:04:36.536Z,-3.60
2018-02-20T04:07:03.503Z,-3.60
2018-02-20T04:09:29.975Z,-3.70
2018-02-20T04:11:57.160Z,-3.90
2018-02-20T04:14:24.319Z,-3.90
2018-02-20T04:16:51.482Z,-3.80
2018-02-20T04:19:18.665Z,-3.70
2018-02-20T04:21:45.189Z,-3.70
2018-02-20T04:24:11.668Z,-3.60
2018-02-20T04:26:38.097Z,-3.70
2018-02-20T04:29:05.178Z,-3.80
2018-02-20T04:31:32.388Z,-4.00
2018-02-20T04:33:58.843Z,-4.00
2018-02-20T04:36:25.302Z,-4.00
2018-02-20T04:38:51.754Z,-4.00
2018-02-20T04:41:18.207Z,-4.00
2018-02-20T04:43:44.623Z,-4.00
2018-02-20T04:46:11.134Z,-3.80
2018-02-20T04:48:38.456Z,-4.20
2018-02-20T04:51:05.306Z,-4.10
2018-02-20T04:53:31.770Z,-4.20
2018-02-20T04:55:58.262Z,-4.30
2018-02-20T04:58:24.755Z,-4.40
2018-02-20T05:00:52.007Z,-4.40
2018-02-20T05:03:18.430Z,-4.50
2018-02-20T05:05:44.847Z,-4.10
2018-02-20T05:08:11.387Z,-4.40
2018-02-20T05:10:38.534Z,-4.40
2018-02-20T05:13:06.013Z,-4.40
2018-02-20T05:15:33.174Z,-4.40
2018-02-20T05:18:00.358Z,-4.50
2018-02-20T05:20:26.792Z,-4.30
2018-02-20T05:22:53.198Z,-4.20
2018-02-20T05:25:19.734Z,-4.60
2018-02-20T05:27:46.155Z,-4.60
2018-02-20T05:30:12.606Z,-4.60
2018-02-20T05:32:39.073Z,-4.60
2018-02-20T05:35:06.012Z,-3.50
2018-02-20T05:37:32.423Z,-4.70
2018-02-20T05:39:58.834Z,-4.70
2018-02-20T05:42:26.068Z,-4.60
2018-02-20T05:44:53.280Z,-4.70
2018-02-20T05:47:19.712Z,-4.60
2018-02-20T05:49:46.276Z,-4.50
2018-02-20T05:52:12.693Z,-4.70
2018-02-20T05:54:39.870Z,-4.70
2018-02-20T05:57:07.068Z,-4.60
2018-02-20T05:59:33.646Z,-4.70
2018-02-20T06:02:00.914Z,-4.70
2018-02-20T06:04:28.369Z,-4.60
2018-02-20T06:06:57.779Z,-4.70
2018-02-20T06:09:26.310Z,-4.60
2018-02-20T06:11:53.371Z,-4.60
2018-02-20T06:14:23.728Z,-4.60
2018-02-20T06:16:51.197Z,-4.80
2018-02-20T06:19:18.598Z,-4.70
2018-02-20T06:21:47.305Z,-4.60
2018-02-20T06:24:16.094Z,-4.70
2018-02-20T06:26:44.719Z,-4.80
2018-02-20T06:29:12.473Z,-4.80
2018-02-20T06:31:40.164Z,-4.80
2018-02-20T06:34:09.008Z,-4.80
2018-02-20T06:36:40.086Z,-4.80
2018-02-20T06:39:09.415Z,-4.80
2018-02-20T06:41:36.967Z,-4.80
2018-02-20T06:44:04.871Z,-4.70
2018-02-20T06:46:36.645Z,-4.70
2018-02-20T06:49:08.946Z,-4.70
2018-02-20T06:51:36.926Z,-4.70
2018-02-20T06:54:04.905Z,-4.60
2018-02-20T06:56:33.498Z,-4.60
2018-02-20T06:59:02.569Z,-4.50
2018-02-20T07:01:31.491Z,-5.40
2018-02-20T07:03:58.627Z,-4.50
2018-02-20T07:06:26.049Z,-4.40
2018-02-20T07:08:52.839Z,-4.30
2018-02-20T07:11:19.640Z,-3.80
2018-02-20T07:13:47.043Z,-4.20
2018-02-20T07:16:14.774Z,-4.10
2018-02-20T07:18:42.328Z,-3.70
2018-02-20T07:21:09.963Z,-3.80
2018-02-20T07:23:43.646Z,-3.60
2018-02-20T07:26:11.054Z,-3.60
2018-02-20T07:28:37.695Z,-3.60
2018-02-20T07:31:04.872Z,-3.20
2018-02-20T07:33:32.969Z,-3.50
2018-02-20T07:35:59.661Z,-3.50
2018-02-20T07:38:26.209Z,-3.80
2018-02-20T07:40:52.849Z,-3.40
2018-02-20T07:43:19.408Z,-3.30
2018-02-20T07:45:46.737Z,-3.10
2018-02-20T07:48:13.341Z,-3.20
2018-02-20T07:50:40.707Z,-2.90
2018-02-20T07:53:08.327Z,-3.10
2018-02-20T07:55:34.957Z,-2.80
2018-02-20T07:58:01.738Z,-2.70
2018-02-20T08:00:28.581Z,-2.60
2018-02-20T08:02:59.212Z,-2.50
2018-02-20T08:05:26.640Z,-2.40
2018-02-20T08:07:54.663Z,-2.10
2018-02-20T08:10:21.338Z,-2.00
2018-02-20T08:12:47.955Z,-1.80
2018-02-20T08:15:14.636Z,-1.60
2018-02-20T08:17:41.298Z,-1.40
2018-02-20T08:20:08.224Z,-1.60
2018-02-20T08:22:34.967Z,-1.00
2018-02-20T08:25:01.554Z,-0.90
2018-02-20T08:27:28.228Z,-0.80
2018-02-20T08:29:55.318Z,-0.60
2018-02-20T08:32:22.226Z,-0.40
2018-02-20T08:34:53.068Z,0.20
2018-02-20T08:37:21.036Z,0.10
2018-02-20T08:39:48.512Z,1.10
2018-02-20T08:42:15.131Z,0.60
2018-02-20T08:44:44.910Z,2.00
2018-02-20T08:47:12.998Z,2.20
2018-02-20T08:49:39.516Z,2.20
2018-02-20T08:52:06.351Z,2.40
2018-02-20T08:54:33.759Z,2.70
2018-02-20T08:57:00.470Z,2.70
2018-02-20T08:59:26.999Z,2.90
2018-02-20T09:01:53.663Z,3.10
2018-02-20T09:04:21.001Z,3.30
2018-02-20T09:06:47.601Z,3.40
2018-02-20T09:09:14.982Z,3.50
2018-02-20T09:11:42.417Z,3.80
2018-02-20T09:14:09.713Z,3.70
2018-02-20T09:16:37.297Z,4.10
2018-02-20T09:19:03.971Z,4.10
2018-02-20T09:21:31.347Z,4.40
2018-02-20T09:23:58.075Z,4.50
2018-02-20T09:26:25.347Z,4.40
2018-02-20T09:28:52.336Z,4.40
2018-02-20T09:31:18.897Z,4.70
2018-02-20T09:33:45.872Z,4.80
2018-02-20T09:36:13.271Z,5.00
2018-02-20T09:38:40.546Z,5.30
2018-02-20T09:41:07.857Z,5.30
2018-02-20T09:43:34.589Z,5.30
2018-02-20T09:46:01.377Z,5.80
2018-02-20T09:48:28.730Z,5.30
2018-02-20T09:50:56.153Z,5.40
2018-02-20T09:53:23.522Z,5.90
2018-02-20T09:55:53.075Z,5.90
2018-02-20T09:58:25.137Z,6.30
2018-02-20T10:00:51.774Z,6.40
2018-02-20T10:03:18.416Z,6.50
2018-02-20T10:05:45.157Z,6.80
2018-02-20T10:08:12.558Z,6.90
2018-02-20T10:10:40.332Z,6.50
2018-02-20T10:13:14.709Z,6.30
2018-02-20T10:15:41.945Z,6.30
2018-02-20T10:18:08.687Z,6.30
2018-02-20T10:20:35.429Z,6.50
2018-02-20T10:23:04.007Z,6.60
2018-02-20T10:25:30.836Z,6.50
2018-02-20T10:27:58.020Z,6.40
2018-02-20T10:30:29.638Z,6.50
2018-02-20T10:32:56.492Z,6.30
2018-02-20T10:35:24.024Z,6.40
2018-02-20T10:37:53.367Z,6.40
2018-02-20T10:40:20.480Z,6.60
2018-02-20T10:42:47.806Z,6.60
2018-02-20T10:45:14.694Z,6.70
2018-02-20T10:47:42.244Z,7.20
2018-02-20T10:50:10.064Z,7.20
2018-02-20T10:52:37.062Z,6.90
2018-02-20T10:55:04.157Z,6.80
2018-02-20T10:57:34.184Z,6.40
2018-02-20T11:00:00.826Z,6.40
2018-02-20T11:02:27.403Z,6.30
2018-02-20T11:04:55.533Z,6.30
2018-02-20T11:07:22.459Z,6.40
2018-02-20T11:09:49.892Z,6.70
2018-02-20T11:12:17.742Z,6.80
2018-02-20T11:14:45.042Z,6.40
2018-02-20T11:17:12.638Z,6.40
2018-02-20T11:19:39.831Z,6.50
2018-02-20T11:22:06.538Z,6.40
2018-02-20T11:24:35.856Z,6.40
2018-02-20T11:27:02.877Z,6.10
2018-02-20T11:29:29.443Z,6.40
2018-02-20T11:31:56.093Z,6.40
2018-02-20T11:34:24.560Z,6.30
2018-02-20T11:36:51.795Z,6.20
2018-02-20T11:39:18.450Z,6.40
2018-02-20T11:41:45.232Z,6.40
2018-02-20T11:44:11.920Z,6.40
2018-02-20T11:46:39.413Z,6.60
2018-02-20T11:49:07.188Z,6.50
2018-02-20T11:51:33.870Z,6.50
2018-02-20T11:54:04.562Z,6.50
2018-02-20T11:56:36.309Z,6.70
2018-02-20T11:59:04.968Z,6.70
2018-02-20T12:01:33.039Z,6.80
2018-02-20T12:04:00.706Z,6.80
2018-02-20T12:06:39.065Z,6.90
2018-02-20T12:09:06.130Z,7.00
2018-02-20T12:11:32.848Z,7.00
2018-02-20T12:14:02.126Z,7.00
2018-02-20T12:16:29.059Z,7.10
2018-02-20T12:18:55.613Z,7.40
2018-02-20T12:21:22.843Z,7.20
2018-02-20T12:23:51.514Z,7.80
2018-02-20T12:26:20.199Z,8.10
2018-02-20T12:28:46.841Z,8.50
2018-02-20T12:31:14.150Z,9.00
2018-02-20T12:33:41.178Z,9.00
2018-02-20T12:36:07.907Z,8.90
2018-02-20T12:38:34.690Z,8.80
2018-02-20T12:41:02.070Z,8.70
2018-02-20T12:43:28.726Z,8.60
2018-02-20T12:45:55.451Z,8.80
2018-02-20T12:48:23.670Z,8.80
2018-02-20T12:50:51.150Z,8.60
2018-02-20T12:53:19.086Z,8.50
2018-02-20T12:55:47.069Z,8.50
2018-02-20T12:58:14.578Z,8.40
2018-02-20T13:00:41.871Z,8.60
2018-02-20T13:03:08.475Z,8.60
2018-02-20T13:05:36.277Z,8.30
2018-02-20T13:08:03.734Z,8.30
2018-02-20T13:10:30.329Z,8.20
2018-02-20T13:12:58.061Z,7.90
2018-02-20T13:15:31.866Z,7.70
2018-02-20T13:18:03.497Z,7.80
2018-02-20T13:20:37.382Z,7.80
2018-02-20T13:23:15.535Z,7.40
2018-02-20T13:25:45.139Z,8.70
2018-02-20T13:28:12.492Z,7.60
2018-02-20T13:30:44.338Z,7.70
2018-02-20T13:33:19.495Z,7.70
2018-02-20T13:35:48.981Z,7.70
2018-02-20T13:38:15.530Z,7.60
2018-02-20T13:40:43.053Z,7.60
2018-02-20T13:43:09.810Z,7.60
2018-02-20T13:45:45.603Z,7.50
2018-02-20T13:48:16.132Z,7.50
2018-02-20T13:50:43.149Z,7.50
2018-02-20T13:53:10.719Z,7.40
2018-02-20T13:55:38.153Z,7.10
2018-02-20T13:58:13.265Z,7.10
2018-02-20T14:00:40.842Z,7.10
2018-02-20T14:03:07.416Z,7.00
2018-02-20T14:05:36.376Z,7.00
2018-02-20T14:08:03.635Z,7.00
2018-02-20T14:10:30.263Z,7.00
2018-02-20T14:12:58.071Z,7.00
2018-02-20T14:15:24.549Z,6.90
2018-02-20T14:17:52.165Z,6.70
2018-02-20T14:20:18.761Z,6.70
2018-02-20T14:22:46.167Z,6.80
2018-02-20T14:25:12.738Z,6.80
2018-02-20T14:27:39.950Z,6.80
2018-02-20T14:30:07.067Z,6.70
2018-02-20T14:32:43.134Z,6.40
2018-02-20T14:35:11.991Z,6.40
2018-02-20T14:37:44.407Z,6.40
2018-02-20T14:40:11.113Z,6.10
2018-02-20T14:42:37.696Z,6.30
2018-02-20T14:45:11.477Z,6.20
2018-02-20T14:47:47.291Z,6.30
2018-02-20T14:50:15.151Z,6.30
2018-02-20T14:52:45.133Z,6.20
2018-02-20T14:55:12.366Z,6.20
2018-02-20T14:57:42.940Z,6.30
2018-02-20T15:00:17.486Z,6.20
2018-02-20T15:02:46.530Z,6.10
2018-02-20T15:05:13.147Z,6.10
2018-02-20T15:07:39.871Z,6.00
2018-02-20T15:10:07.121Z,6.10
2018-02-20T15:12:34.037Z,6.00
2018-02-20T15:15:02.367Z,5.80
2018-02-20T15:17:31.428Z,5.80
2018-02-20T15:19:59.122Z,5.80
2018-02-20T15:22:27.688Z,5.80
2018-02-20T15:24:54.280Z,5.70
2018-02-20T15:27:23.666Z,5.70
2018-02-20T15:29:50.260Z,5.70
2018-02-20T15:32:19.977Z,5.70
2018-02-20T15:34:46.941Z,5.80
2018-02-20T15:37:14.298Z,5.60
2018-02-20T15:39:40.915Z,5.60
2018-02-20T15:42:14.503Z,5.60
2018-02-20T15:44:42.536Z,5.50
2018-02-20T15:47:09.230Z,5.40
2018-02-20T15:49:36.975Z,5.40
2018-02-20T15:52:07.089Z,5.30
2018-02-20T15:54:34.582Z,5.20
2018-02-20T15:57:04.346Z,5.20
2018-02-20T15:59:31.841Z,5.20
2018-02-20T16:01:59.950Z,4.90
2018-02-20T16:04:30.090Z,4.90
2018-02-20T16:07:03.093Z,4.90
2018-02-20T16:09:37.581Z,4.80
2018-02-20T16:12:08.000Z,4.80
2018-02-20T16:14:37.149Z,4.90
2018-02-20T16:17:06.658Z,4.80
2018-02-20T16:19:34.423Z,4.80
2018-02-20T16:22:04.167Z,4.80
2018-02-20T16:24:31.516Z,4.80
2018-02-20T16:27:06.182Z,4.70
2018-02-20T16:29:38.114Z,4.60
2018-02-20T16:32:07.147Z,4.70
2018-02-20T16:34:36.623Z,4.60
2018-02-20T16:37:05.878Z,4.40
2018-02-20T16:39:34.411Z,4.40
2018-02-20T16:42:01.030Z,4.40
2018-02-20T16:44:30.034Z,4.30
2018-02-20T16:47:03.238Z,4.30
2018-02-20T16:49:32.815Z,4.40
2018-02-20T16:51:59.563Z,3.60
2018-02-20T16:54:26.580Z,4.00
2018-02-20T16:56:53.227Z,3.90
2018-02-20T16:59:20.974Z,3.80
2018-02-20T17:01:48.268Z,3.60
2018-02-20T17:04:16.672Z,3.30
2018-02-20T17:06:43.333Z,3.30
2018-02-20T17:09:11.209Z,3.20
2018-02-20T17:11:40.170Z,3.10
2018-02-20T17:14:08.140Z,2.80
2018-02-20T17:16:37.881Z,3.00
2018-02-20T17:19:05.369Z,2.90
2018-02-20T17:21:32.798Z,2.80
2018-02-20T17:24:01.093Z,2.50
2018-02-20T17:26:28.781Z,2.50
2018-02-20T17:28:56.396Z,2.40
2018-02-20T17:31:22.895Z,2.30
2018-02-20T17:33:49.489Z,2.10
2018-02-20T17:36:16.868Z,1.90
2018-02-20T17:38:43.395Z,1.80
2018-02-20T17:41:09.909Z,1.80
2018-02-20T17:43:36.362Z,1.70
2018-02-20T17:46:03.322Z,1.60
2018-02-20T17:48:30.555Z,1.40
2018-02-20T17:50:57.058Z,1.30
2018-02-20T17:53:24.266Z,1.20
2018-02-20T17:55:50.679Z,1.20
2018-02-20T17:58:17.857Z,1.10
2018-02-20T18:00:44.323Z,1.00
2018-02-20T18:03:10.858Z,1.00
2018-02-20T18:05:37.350Z,0.90
2018-02-20T18:08:05.421Z,1.10
2018-02-20T18:10:32.689Z,1.20
2018-02-20T18:12:59.991Z,1.30
2018-02-20T18:15:26.547Z,1.20
2018-02-20T18:17:53.075Z,1.40
2018-02-20T18:20:19.693Z,1.60
2018-02-20T18:22:47.110Z,1.60
2018-02-20T18:25:13.635Z,1.60
2018-02-20T18:27:40.835Z,1.50
2018-02-20T18:30:07.764Z,1.50
2018-02-20T18:32:34.251Z,1.50
2018-02-20T18:35:00.704Z,1.50
2018-02-20T18:37:27.903Z,1.30
2018-02-20T18:39:54.319Z,1.10
2018-02-20T18:42:21.612Z,1.30
2018-02-20T18:44:48.083Z,1.30
2018-02-20T18:47:14.567Z,1.30
2018-02-20T18:49:41.826Z,1.20
2018-02-20T18:52:08.350Z,1.20
2018-02-20T18:54:35.662Z,1.10
2018-02-20T18:57:02.287Z,1.10
2018-02-20T18:59:29.493Z,1.00
2018-02-20T19:01:55.934Z,1.00
2018-02-20T19:04:23.896Z,0.90
2018-02-20T19:06:50.401Z,0.80
2018-02-20T19:09:17.622Z,0.40
2018-02-20T19:11:44.596Z,0.40
2018-02-20T19:14:11.109Z,0.30
2018-02-20T19:16:37.558Z,0.20
2018-02-20T19:19:04.662Z,0.10
2018-02-20T19:21:31.221Z,0.20
2018-02-20T19:23:58.498Z,0.20
2018-02-20T19:26:25.748Z,0.20
2018-02-20T19:28:52.198Z,0.20
2018-02-20T19:31:19.472Z,-0.10
2018-02-20T19:33:49.066Z,-0.10
2018-02-20T19:36:15.562Z,-0.20
2018-02-20T19:38:42.023Z,-0.30
2018-02-20T19:41:08.487Z,-0.30
2018-02-20T19:43:35.675Z,-0.50
2018-02-20T19:46:02.192Z,-0.50
2018-02-20T19:48:28.716Z,-0.50
2018-02-20T19:50:55.156Z,-0.50
2018-02-20T19:53:21.598Z,-0.50
2018-02-20T19:55:48.055Z,-0.60
2018-02-20T19:58:14.571Z,-0.60
2018-02-20T20:00:41.072Z,-0.70
2018-02-20T20:03:08.579Z,-0.80
2018-02-20T20:05:35.061Z,-0.90
2018-02-20T20:08:01.516Z,-1.00
2018-02-20T20:10:27.971Z,-1.00
2018-02-20T20:12:55.244Z,-1.00
2018-02-20T20:15:21.642Z,-1.00
2018-02-20T20:17:48.229Z,-0.90
2018-02-20T20:20:14.776Z,-0.90
2018-02-20T20:22:41.315Z,-0.70
2018-02-20T20:25:07.772Z,-0.60
2018-02-20T20:27:34.228Z,-0.50
2018-02-20T20:30:01.448Z,-0.50
2018-02-20T20:32:28.675Z,-0.50
2018-02-20T20:34:55.148Z,-0.50
2018-02-20T20:37:21.627Z,-0.50
2018-02-20T20:39:48.835Z,-0.70
2018-02-20T20:42:15.284Z,-0.80
2018-02-20T20:44:41.745Z,-0.80
2018-02-20T20:47:09.763Z,-1.00
2018-02-20T20:49:36.217Z,-0.90
2018-02-20T20:52:03.130Z,-0.80
2018-02-20T20:54:29.694Z,-0.70
2018-02-20T20:56:56.426Z,-0.70
2018-02-20T20:59:23.702Z,-0.80
2018-02-20T21:01:50.960Z,-0.90
2018-02-20T21:04:17.423Z,-1.00
2018-02-20T21:06:43.858Z,-1.00
2018-02-20T21:09:10.310Z,-1.10
2018-02-20T21:11:37.493Z,-1.30
2018-02-20T21:14:05.114Z,-1.30
2018-02-20T21:16:32.408Z,-1.20
2018-02-20T21:18:58.860Z,-1.30
2018-02-20T21:21:25.401Z,-1.20
2018-02-20T21:23:51.910Z,-1.20
2018-02-20T21:26:18.532Z,-1.20
2018-02-20T21:28:45.027Z,-1.20
2018-02-20T21:31:12.395Z,-1.10
2018-02-20T21:33:38.947Z,-1.10
2018-02-20T21:36:05.870Z,-1.10
2018-02-20T21:38:32.474Z,-1.10
2018-02-20T21:40:58.991Z,-1.10
2018-02-20T21:43:26.232Z,-1.20
2018-02-20T21:45:53.512Z,-1.20
2018-02-20T21:48:20.819Z,-1.20
2018-02-20T21:50:47.312Z,-1.20
2018-02-20T21:53:13.869Z,-1.20
2018-02-20T21:55:40.391Z,-1.10
2018-02-20T21:58:07.261Z,-1.10
2018-02-20T22:00:35.158Z,-1.00
2018-02-20T22:03:01.615Z,-0.90
2018-02-20T22:05:28.103Z,-0.90
2018-02-20T22:07:54.573Z,-0.90
2018-02-20T22:10:21.100Z,-1.00
2018-02-20T22:12:47.539Z,-1.10
2018-02-20T22:15:14.044Z,-1.20
2018-02-20T22:17:41.272Z,-1.50
2018-02-20T22:20:07.718Z,-1.50
2018-02-20T22:22:34.945Z,-1.80
2018-02-20T22:25:01.449Z,-1.80
2018-02-20T22:27:27.891Z,-1.90
2018-02-20T22:29:54.423Z,-1.80
2018-02-20T22:32:20.885Z,-2.30
2018-02-20T22:34:47.584Z,-2.40
2018-02-20T22:37:14.123Z,-2.50
2018-02-20T22:39:40.559Z,-2.50
2018-02-20T22:42:07.378Z,-2.40
2018-02-20T22:44:33.831Z,-2.30
2018-02-20T22:47:00.269Z,-2.20
2018-02-20T22:49:26.811Z,-1.90
2018-02-20T22:51:53.247Z,-1.70
2018-02-20T22:54:20.428Z,-1.70
2018-02-20T22:56:46.888Z,-1.70
2018-02-20T22:59:13.322Z,-1.60
2018-02-20T23:01:39.804Z,-1.60
2018-02-20T23:04:06.892Z,-1.60
2018-02-20T23:06:33.369Z,-1.70
2018-02-20T23:08:59.799Z,-1.70
2018-02-20T23:11:38.652Z,-1.80
2018-02-20T23:14:05.622Z,-2.00
2018-02-20T23:16:32.647Z,-2.20
2018-02-20T23:18:59.138Z,-2.30
2018-02-20T23:21:25.588Z,-2.30
2018-02-20T23:23:52.759Z,-2.40
2018-02-20T23:26:19.199Z,-2.40
2018-02-20T23:28:46.418Z,-2.60
2018-02-20T23:31:12.892Z,-2.70
2018-02-20T23:33:39.345Z,-2.70
2018-02-20T23:36:06.478Z,-2.70
2018-02-20T23:38:34.419Z,-3.00
2018-02-20T23:41:00.859Z,-3.10
2018-02-20T23:43:27.298Z,-3.10
2018-02-20T23:45:53.801Z,-3.20
2018-02-20T23:48:20.232Z,-3.30
2018-02-20T23:50:46.698Z,-3.40
2018-02-20T23:53:14.820Z,-3.30
2018-02-20T23:55:41.227Z,-3.30
2018-02-20T23:58:08.642Z,-3.00
